LDRI/RJK METAR and TAF weather

Enter ICAO airport designator
Station Type Date Time Source
LDRI METAR 2019/04/25 12:00 UTC NOAA

LDRI 251200Z 27006KT 230V310 9999 FEW027 20/14 Q1020


Station Type Date Time Source
LDRI Decoded METAR 2019/04/25 12:00 UTC NOAA

Rijeka / Omisalj, Croatia (LDRI) 45-13N 014-35E
Apr 25, 2019 - 08:00 AM EDT / 2019.04.25 1200 UTC
Wind: from the W (270 degrees) at 7 MPH (6 KT) (direction variable):0
Visibility: greater than 7 mile(s):0
Sky conditions: mostly clear
Temperature: 68 F (20 C)
Dew Point: 57 F (14 C)
Relative Humidity: 68%
Pressure (altimeter): 30.12 in. Hg (1020 hPa)
ob: LDRI 251200Z 27006KT 230V310 9999 FEW027 20/14 Q1020
cycle: 12

Station Type Date Time Source
LDRI TAF 2019/04/25 12:30 UTC NOAA

TAF LDRI 251125Z 2512/2612 VRB02KT 9999 FEW025 TX21/2514Z TN13/2605Z

Example: see airport list